METAR Data
IDs: Format: Raw Decoded Include TAF

Data at: 0728 UTC 03 Aug 2021

EDLV 030720Z VRB01KT CAVOK 15/13 Q1013